WetterOnline ( http://www.wetteronline.de )

Wetter aktuell Meiningen

Aktuelles Wetter: Meiningen (453m)

6-stündlich | Neueste Meldungen
Ortszeit Temperatur Wetter
Di, 17.07. 20:00 24.4° C leicht bewölkt
Di, 17.07. 14:00 26.1° C wolkig
Di, 17.07. 8:00 15.5° C leicht bewölkt
Di, 17.07. 2:00 14.7° C leicht bewölkt
Mo, 16.07. 20:00 20.5° C wolkenlos
Mo, 16.07. 14:00 25.4° C leicht bewölkt
Mo, 16.07. 8:00 16.8° C bedeckt
Mo, 16.07. 2:00 15.6° C leicht bewölkt
Ortszeit Temperatur Wetter
Di, 17.07. 23:00 22.1° C bedeckt
Di, 17.07. 22:50 22.1° C bedeckt
Di, 17.07. 22:40 22.1° C bedeckt
Di, 17.07. 22:30 22.6° C bewölkt
Di, 17.07. 22:20 22.6° C bewölkt
Di, 17.07. 22:10 22.7° C wolkig
Di, 17.07. 22:00 22.0° C leicht bewölkt
Di, 17.07. 21:30 22.9° C fast wolkenlos
Di, 17.07. 21:00 23.3° C wolkenlos
Di, 17.07. 20:30 24.0° C wolkig
Di, 17.07. 20:00 24.4° C leicht bewölkt
Ortszeit Relative Feuchte Sichtweite
Di, 17.07. 20:00 41% 55 km
Di, 17.07. 14:00 29% 45 km
Di, 17.07. 8:00 85% 11 km
Di, 17.07. 2:00 98% 7 km
Mo, 16.07. 20:00 70% 35 km
Mo, 16.07. 14:00 36% 26 km
Mo, 16.07. 8:00 80% 20 km
Mo, 16.07. 2:00 80% 30 km
Ortszeit Relative Feuchte Sichtweite
Di, 17.07. 23:00 48% 45 km
Di, 17.07. 22:50 48% -
Di, 17.07. 22:40 48% -
Di, 17.07. 22:30 46% 45 km
Di, 17.07. 22:20 46% -
Di, 17.07. 22:10 46% -
Di, 17.07. 22:00 48% 45 km
Di, 17.07. 21:30 44% 45 km
Di, 17.07. 21:00 42% 40 km
Di, 17.07. 20:30 42% 50 km
Di, 17.07. 20:00 41% 55 km
Ortszeit Niederschlagsmenge Niederschlagsart
Di, 17.07. 20:00 0.4 l/m2 in 12 Std. Regen
Di, 17.07. 14:00 0.0 l/m2 in 6 Std. -
Di, 17.07. 8:00 0.0 l/m2 in 12 Std. -
Di, 17.07. 2:00 0.0 l/m2 in 6 Std. -
Mo, 16.07. 20:00 18 l/m2 in 12 Std. Regenschauer
Mo, 16.07. 14:00 0.0 l/m2 in 6 Std. -
Mo, 16.07. 8:00 0.0 l/m2 in 12 Std. -
Mo, 16.07. 2:00 0.0 l/m2 in 6 Std. -
Ortszeit Niederschlagsmenge Niederschlagsart
Di, 17.07. 23:00 0.0 l/m2 in 1 Std. -
Di, 17.07. 22:50 keine Meldung -
Di, 17.07. 22:40 keine Meldung -
Di, 17.07. 22:30 0.0 l/m2 in 1 Std. -
Di, 17.07. 22:20 keine Meldung -
Di, 17.07. 22:10 keine Meldung -
Di, 17.07. 22:00 0.0 l/m2 in 1 Std. -
Di, 17.07. 21:30 0.0 l/m2 in 1 Std. -
Di, 17.07. 21:00 0.0 l/m2 in 1 Std. -
Di, 17.07. 20:30 0.0 l/m2 in 1 Std. -
Di, 17.07. 20:00 0.0 l/m2 in 1 Std. Regen
Ortszeit Stärke Spitze Richtung
km/h Bft. km/h Grad Sektor
Di, 17.07. 20:00 11 2 39 290° W
Di, 17.07. 14:00 13 3 28 290° W
Di, 17.07. 8:00 7 2 7 140° SO
Di, 17.07. 2:00 4 1 11 350° N
Mo, 16.07. 20:00 4 1 47 130° SO
Mo, 16.07. 14:00 7 2 22 120° SO
Mo, 16.07. 8:00 4 1 7 50° NO
Mo, 16.07. 2:00 4 1 29 50° NO
Ortszeit Stärke Spitze Richtung
km/h Bft. km/h Grad Sektor
Di, 17.07. 23:00 13 3 28 310° NW
Di, 17.07. 22:50 13 3 - 310° NW
Di, 17.07. 22:40 14 3 - 320° NW
Di, 17.07. 22:30 20 4 28 310° NW
Di, 17.07. 22:20 20 4 - 310° NW
Di, 17.07. 22:10 18 3 - 310° NW
Di, 17.07. 22:00 11 2 25 280° W
Di, 17.07. 21:30 13 3 24 270° W
Di, 17.07. 21:00 11 2 19 290° W
Di, 17.07. 20:30 13 3 19 290° W
Di, 17.07. 20:00 11 2 26 290° W
Ortszeit Untergrenze Bedeckung Gattung
total tief tief mittel hoch
Di, 17.07. 20:00 3600 m 4/8 4/8 - - -
Di, 17.07. 14:00 2100 m 7/8 2/8 - - -
Di, 17.07. 8:00 9000 m 8/8 0/8 - - -
Di, 17.07. 2:00 7800 m 4/8 0/8 - - -
Mo, 16.07. 20:00 - 0/8 0/8 - - -
Mo, 16.07. 14:00 2700 m 3/8 2/8 - - -
Mo, 16.07. 8:00 4200 m 8/8 8/8 - - -
Mo, 16.07. 2:00 9000 m 6/8 0/8 - - -
Ortszeit Bedeckungsgrad in Achtel und Wolkenuntergrenze
Di, 17.07. 23:00 8(2700m)
Di, 17.07. 22:50 8(2700m)
Di, 17.07. 22:40 8(2700m) 8(3300m)
Di, 17.07. 22:30 7(3000m) 7(3600m)
Di, 17.07. 22:20 7(3000m) 7(3600m)
Di, 17.07. 22:10 5(3300m) 6(4200m)
Di, 17.07. 22:00 1(3600m) 3(4200m)
Di, 17.07. 21:30 1(3000m)
Di, 17.07. 21:00 keine Wolken
Di, 17.07. 20:30 5(3600m)
Di, 17.07. 20:00 4(3600m)
Ortszeit Luftdruck NN (hPa) Tendenz (hPa in 3 Std.)
Di, 17.07. 20:00 1012 + 0,3
Di, 17.07. 14:00 1012 - 0,3
Di, 17.07. 8:00 1014 + 0,6
Di, 17.07. 2:00 1014 + 0,4
Mo, 16.07. 20:00 1012 - 0,4
Mo, 16.07. 14:00 1012 - 1,3
Mo, 16.07. 8:00 1015 - 0,1
Mo, 16.07. 2:00 1016 + 0,2
Ortszeit Luftdruck NN (hPa) Tendenz (hPa in 3 Std.)
Di, 17.07. 23:00 1014 + 1,3
Di, 17.07. 22:50 1014 keine Meldung
Di, 17.07. 22:40 1014 keine Meldung
Di, 17.07. 22:30 1014 + 1,1
Di, 17.07. 22:20 1014 keine Meldung
Di, 17.07. 22:10 1014 keine Meldung
Di, 17.07. 22:00 1014 + 1,1
Di, 17.07. 21:30 1014 + 0,8
Di, 17.07. 21:00 1013 + 0,7
Di, 17.07. 20:30 1013 + 0,5
Di, 17.07. 20:00 1012 + 0,3
Ortszeit Schneehöhe (cm)
Di, 17.07. 20:00 -
Di, 17.07. 14:00 -
Di, 17.07. 8:00 -
Di, 17.07. 2:00 -
Mo, 16.07. 20:00 -
Mo, 16.07. 14:00 -
Mo, 16.07. 8:00 -
Mo, 16.07. 2:00 -
Ortszeit Schneehöhe (cm)
Di, 17.07. 23:00 -
Di, 17.07. 22:50 -
Di, 17.07. 22:40 -
Di, 17.07. 22:30 -
Di, 17.07. 22:20 -
Di, 17.07. 22:10 -
Di, 17.07. 22:00 -
Di, 17.07. 21:30 -
Di, 17.07. 21:00 -
Di, 17.07. 20:30 -
Di, 17.07. 20:00 -
Link zu dieser Seite / Seite empfehlen

Das Wetter in ...